Time;durP1;ratioP1;P1;durP2;ratioP2;P2;SDS_P1;SDS_P2;PMS_P1;PMS_P2;Temp;Humidity;BMP_temperature;BMP_pressure;BME280_temperature;BME280_humidity;BME280_pressure;Samples;Min_cycle;Max_cycle;Signal;HPM_P1;HPM_P2
2021/03/11 00:08:15;;;;;;;79.28;37.95;;;;;;;-0.09;49.12;99458.88;252076;1145;115259;-74
2021/03/11 00:13:26;;;;;;;80.13;37.50;;;;;;;-0.12;49.13;99453.68;252170;1152;114542;-71
2021/03/11 00:18:28;;;;;;;;;;;;;;;-0.19;49.51;99429.34;252105;1146;114357;-70
2021/03/11 00:23:37;;;;;;;99.90;43.43;;;;;;;-0.33;49.70;99421.67;252251;1152;101110;-67
2021/03/11 00:28:39;;;;;;;108.53;47.23;;;;;;;-0.36;49.92;99424.32;252284;1144;114683;-66
2021/03/11 00:33:41;;;;;;;115.95;50.15;;;;;;;-0.38;50.58;99415.62;252311;1152;115007;-66
2021/03/11 00:38:43;;;;;;;112.18;51.68;;;;;;;-0.41;50.87;99412.17;252130;1144;114737;-67
2021/03/11 00:43:46;;;;;;;120.50;52.95;;;;;;;-0.45;50.67;99403.50;251947;1144;114661;-69
2021/03/11 00:48:48;;;;;;;120.40;51.63;;;;;;;-0.50;50.96;99406.19;251572;1144;114468;-68
2021/03/11 00:53:53;;;;;;;125.95;55.00;;;;;;;-0.54;51.04;99396.66;252029;1153;115174;-77
2021/03/11 00:59:41;;;;;;;127.37;57.13;;;;;;;-0.60;51.34;99396.71;252171;1144;115022;-71
2021/03/11 01:05:27;;;;;;;110.80;49.57;;;;;;;-0.60;51.36;99393.24;251859;1153;115261;-71
2021/03/11 01:11:51;;;;;;;118.23;52.60;;;;;;;-0.70;51.56;99389.00;252485;1144;101253;-71
2021/03/11 01:18:55;;;;;;;;;;;;;;;-0.69;52.27;99388.11;250808;1143;103267;-67
2021/03/11 01:23:58;;;;;;;114.20;52.47;;;;;;;-0.77;52.08;99394.28;251920;1153;101570;-71
2021/03/11 01:29:02;;;;;;;120.60;54.55;;;;;;;-0.81;52.34;99384.75;251882;1147;115163;-72
2021/03/11 01:34:07;;;;;;;121.90;53.45;;;;;;;-0.84;52.47;99376.95;251936;1146;115487;-71
2021/03/11 01:39:09;;;;;;;119.78;55.08;;;;;;;-0.83;52.48;99372.58;251915;1146;115469;-71
2021/03/11 01:44:12;;;;;;;132.05;56.08;;;;;;;-0.79;52.71;99371.66;252018;1144;114814;-70
2021/03/11 01:49:14;;;;;;;125.00;58.60;;;;;;;-0.78;52.93;99350.76;251607;1145;114692;-71
2021/03/11 01:54:18;;;;;;;141.70;60.23;;;;;;;-0.80;52.83;99341.20;252216;1152;114652;-77
2021/03/11 01:59:32;;;;;;;134.35;60.40;;;;;;;-0.79;52.69;99342.92;251986;1146;115302;-72
2021/03/11 02:04:38;;;;;;;144.80;63.35;;;;;;;-0.86;53.04;99336.89;251942;1153;114654;-72
2021/03/11 02:09:43;;;;;;;133.53;60.53;;;;;;;-0.95;53.14;99337.02;252051;1146;115037;-69
2021/03/11 02:15:30;;;;;;;141.05;61.78;;;;;;;-0.97;53.24;99334.41;251995;1153;116061;-70
2021/03/11 02:20:54;;;;;;;133.40;60.45;;;;;;;-0.94;53.60;99325.68;251887;1146;115539;-70
2021/03/11 02:26:02;;;;;;;148.73;60.37;;;;;;;-0.94;53.49;99311.76;249995;1146;116187;-68
2021/03/11 02:31:07;;;;;;;139.95;61.15;;;;;;;-1.02;53.42;99307.48;252031;1146;115577;-73
2021/03/11 02:36:13;;;;;;;134.45;59.85;;;;;;;-1.07;54.04;99303.19;252067;1147;115617;-72
2021/03/11 02:41:27;;;;;;;130.83;59.53;;;;;;;-1.10;53.91;99298.86;251988;1153;115070;-71
2021/03/11 02:46:33;;;;;;;134.20;57.10;;;;;;;-1.16;53.81;99292.83;251940;1145;116091;-72
2021/03/11 02:51:39;;;;;;;137.60;58.78;;;;;;;-1.26;53.82;99289.45;251977;1152;118416;-70
2021/03/11 02:56:43;;;;;;;124.08;56.70;;;;;;;-1.33;53.90;99278.20;251993;1146;116449;-68
2021/03/11 03:01:47;;;;;;;119.15;55.83;;;;;;;-1.34;54.13;99266.04;252080;1153;115171;-70
2021/03/11 03:06:53;;;;;;;125.15;56.65;;;;;;;-1.38;54.29;99261.73;251970;1145;115567;-70
2021/03/11 03:11:56;;;;;;;130.50;57.10;;;;;;;-1.40;54.44;99260.88;252012;1146;115590;-70
2021/03/11 03:17:01;;;;;;;132.83;57.40;;;;;;;-1.41;54.41;99253.94;251909;1153;115207;-73
2021/03/11 03:22:04;;;;;;;123.83;59.53;;;;;;;-1.35;54.35;99253.02;251903;1145;114985;-72
2021/03/11 03:27:11;;;;;;;123.65;56.30;;;;;;;-1.27;54.68;99259.01;251981;1144;115987;-70
2021/03/11 03:32:21;;;;;;;115.50;56.73;;;;;;;-1.28;54.52;99257.29;251727;1146;116224;-73
2021/03/11 03:37:26;;;;;;;130.15;57.90;;;;;;;-1.32;54.31;99256.46;251999;1152;116199;-76
2021/03/11 03:42:43;;;;;;;129.28;56.33;;;;;;;-1.32;54.15;99245.16;251967;1153;117781;-75
2021/03/11 03:48:09;;;;;;;115.97;55.63;;;;;;;-1.34;54.66;99232.11;251799;1146;115580;-76
2021/03/11 03:53:28;;;;;;;116.60;52.87;;;;;;;-1.32;54.59;99227.75;251925;1152;115772;-72
2021/03/11 03:58:48;;;;;;;125.13;56.97;;;;;;;-1.37;54.78;99239.97;251926;1145;114854;-70
2021/03/11 04:04:04;;;;;;;110.00;50.17;;;;;;;-1.35;54.73;99239.97;251851;1153;115522;-71
2021/03/11 04:09:17;;;;;;;114.73;53.83;;;;;;;-1.40;54.38;99234.78;251882;1146;115452;-71
2021/03/11 04:14:43;;;;;;;106.48;50.98;;;;;;;-1.47;54.51;99233.11;251915;1153;114658;-69
2021/03/11 04:19:54;;;;;;;107.00;50.50;;;;;;;-1.48;54.76;99228.78;251953;1146;115793;-69
2021/03/11 04:25:02;;;;;;;107.60;50.90;;;;;;;-1.50;55.04;99210.52;251794;1153;115432;-69
2021/03/11 04:30:31;;;;;;;112.48;51.45;;;;;;;-1.47;54.81;99213.09;251850;1146;115065;-69
2021/03/11 04:35:53;;;;;;;124.95;51.15;;;;;;;-1.46;54.66;99201.80;251925;1145;115418;-70
2021/03/11 04:41:15;;;;;;;121.70;49.35;;;;;;;-1.44;54.71;99218.28;251952;1146;115395;-71
2021/03/11 04:46:39;;;;;;;112.55;48.10;;;;;;;-1.48;54.70;99220.95;251496;1153;115049;-71
2021/03/11 04:52:03;;;;;;;123.18;50.03;;;;;;;-1.50;54.81;99220.09;251958;1146;115507;-73
2021/03/11 04:57:09;;;;;;;111.35;50.60;;;;;;;-1.49;54.95;99209.66;252146;1145;116082;-74
2021/03/11 05:02:21;;;;;;;111.53;48.87;;;;;;;-1.44;54.59;99199.16;251921;1146;115585;-73
2021/03/11 05:07:33;;;;;;;106.73;50.10;;;;;;;-1.47;54.68;99200.05;251877;1153;114948;-73
2021/03/11 05:12:37;;;;;;;110.68;47.48;;;;;;;-1.47;54.99;99193.97;251949;1146;115952;-68
2021/03/11 05:17:39;;;;;;;108.18;49.75;;;;;;;-1.47;54.75;99194.83;252055;1153;115407;-68
2021/03/11 05:22:48;;;;;;;97.33;44.47;;;;;;;-1.40;54.84;99197.38;251925;1147;115621;-74
2021/03/11 05:27:58;;;;;;;106.47;47.33;;;;;;;-1.34;55.00;99179.90;251684;1153;115160;-74
2021/03/11 05:33:11;;;;;;;95.77;42.93;;;;;;;-1.26;55.17;99170.25;252044;1146;116021;-71
2021/03/11 05:38:30;;;;;;;87.25;39.45;;;;;;;-1.20;54.68;99174.51;251080;1146;115846;-79
2021/03/11 05:44:12;;;;;;;101.33;42.47;;;;;;;-1.15;54.81;99154.44;251244;1147;115889;-67
2021/03/11 05:49:16;;;;;;;91.13;41.00;;;;;;;-1.11;54.63;99155.27;251957;1153;116310;-69
2021/03/11 05:54:19;;;;;;;84.85;40.73;;;;;;;-1.06;54.71;99142.99;251871;1146;114759;-70
2021/03/11 05:59:21;;;;;;;83.70;37.45;;;;;;;-0.97;54.36;99121.98;249297;1146;114986;-73
2021/03/11 06:04:26;;;;;;;77.40;35.53;;;;;;;-0.89;54.26;99124.48;251976;1145;115789;-69
2021/03/11 06:09:30;;;;;;;87.35;40.15;;;;;;;-0.81;54.29;99123.49;252051;1146;114911;-69
2021/03/11 06:14:37;;;;;;;95.97;40.90;;;;;;;-0.69;54.52;99130.27;251993;1146;114922;-67
2021/03/11 06:19:39;;;;;;;92.65;40.15;;;;;;;-0.68;53.79;99123.29;251977;1145;116069;-67
2021/03/11 06:24:44;;;;;;;85.48;37.93;;;;;;;-0.57;54.05;99109.19;251626;1146;116996;-69
2021/03/11 06:29:47;;;;;;;81.35;38.95;;;;;;;-0.40;53.59;99115.90;252005;1145;114734;-70
2021/03/11 06:34:51;;;;;;;84.77;35.80;;;;;;;-0.22;53.46;99099.02;251773;1146;114861;-69
2021/03/11 06:39:54;;;;;;;78.13;35.60;;;;;;;-0.14;53.83;99097.13;252040;1146;115051;-70
2021/03/11 06:44:57;;;;;;;87.77;36.07;;;;;;;-0.04;53.26;99086.45;252028;1145;114802;-69
2021/03/11 06:50:03;;;;;;;84.73;36.28;;;;;;;0.06;53.18;99078.45;252113;1152;114803;-71
2021/03/11 06:55:10;;;;;;;81.90;33.05;;;;;;;0.25;52.87;99079.83;252059;1146;114674;-71
2021/03/11 07:00:18;;;;;;;66.95;31.35;;;;;;;0.41;52.76;99075.16;251997;1146;114828;-69
2021/03/11 07:05:27;;;;;;;64.60;31.10;;;;;;;0.56;52.76;99069.59;252024;1145;114986;-70
2021/03/11 07:10:30;;;;;;;70.65;28.48;;;;;;;0.66;52.12;99063.26;252045;1152;115171;-70
2021/03/11 07:15:35;;;;;;;72.63;29.87;;;;;;;0.75;52.19;99053.46;250976;1146;114755;-70
2021/03/11 07:20:38;;;;;;;74.27;30.47;;;;;;;0.86;52.23;99043.63;251315;1153;114995;-70
2021/03/11 07:25:44;;;;;;;68.20;28.90;;;;;;;0.93;51.69;99034.73;251799;1148;114603;-72
2021/03/11 07:31:01;;;;;;;65.35;29.88;;;;;;;1.08;51.82;99031.73;252105;1145;114567;-70
2021/03/11 07:36:07;;;;;;;65.30;29.57;;;;;;;1.23;51.53;99027.90;252116;1146;114946;-71
2021/03/11 07:41:12;;;;;;;64.83;28.53;;;;;;;1.36;51.03;99024.08;252116;1144;114568;-69
2021/03/11 07:46:14;;;;;;;52.25;24.75;;;;;;;1.55;50.87;99027.08;252046;1145;114496;-70
2021/03/11 07:51:17;;;;;;;56.25;27.43;;;;;;;1.69;51.31;99013.59;251943;1146;115513;-71
2021/03/11 07:56:19;;;;;;;52.17;25.87;;;;;;;1.87;50.80;99007.88;251050;1146;114572;-70
2021/03/11 08:01:54;;;;;;;51.00;26.47;;;;;;;2.02;50.15;99008.35;252146;1146;114949;-71
2021/03/11 08:07:20;;;;;;;58.47;27.37;;;;;;;2.16;50.17;99008.81;252027;1145;114725;-70
2021/03/11 08:12:33;;;;;;;46.78;23.23;;;;;;;2.35;49.56;99006.53;252021;1146;115298;-68
2021/03/11 08:17:47;;;;;;;43.38;22.48;;;;;;;2.49;49.13;98995.61;251972;1146;114690;-70
2021/03/11 08:22:59;;;;;;;47.40;22.70;;;;;;;2.63;48.46;98992.57;252182;1153;116837;-69
2021/03/11 08:28:22;;;;;;;53.38;24.55;;;;;;;2.76;48.80;98978.15;252044;1146;115412;-70
2021/03/11 08:33:25;;;;;;;41.97;21.97;;;;;;;2.89;48.16;98975.97;251920;1146;114859;-70
2021/03/11 08:38:29;;;;;;;44.65;23.60;;;;;;;2.93;48.19;98973.21;251742;1153;114699;-70
2021/03/11 08:43:34;;;;;;;46.15;23.75;;;;;;;3.05;48.10;98949.13;251470;1145;114996;-69
2021/03/11 08:48:42;;;;;;;43.23;24.97;;;;;;;3.14;48.34;98945.36;251438;1145;114785;-68
2021/03/11 08:53:51;;;;;;;43.03;23.88;;;;;;;3.29;48.10;98939.59;251995;1146;114753;-69
2021/03/11 08:58:54;;;;;;;47.63;24.83;;;;;;;3.41;47.56;98929.55;251301;1145;114526;-72
2021/03/11 09:03:57;;;;;;;51.83;25.30;;;;;;;3.58;48.04;98921.07;252033;1146;115040;-70
2021/03/11 09:08:59;;;;;;;55.43;26.53;;;;;;;3.74;48.19;98914.35;252022;1153;114641;-70
2021/03/11 09:14:10;;;;;;;49.70;24.85;;;;;;;3.90;48.09;98904.95;251509;1153;114471;-73
2021/03/11 09:19:27;;;;;;;41.17;21.93;;;;;;;4.03;47.96;98894.83;252021;1146;117732;-71
2021/03/11 09:24:32;;;;;;;42.13;21.93;;;;;;;4.15;47.33;98877.72;251934;1144;115232;-70
2021/03/11 09:29:35;;;;;;;46.63;21.95;;;;;;;4.24;47.34;98874.70;252033;1153;114565;-68
2021/03/11 09:34:52;;;;;;;45.90;21.73;;;;;;;4.31;47.39;98868.27;252026;1153;114504;-69
2021/03/11 09:39:58;;;;;;;34.80;18.80;;;;;;;4.45;47.25;98860.70;251764;1146;114602;-68
2021/03/11 09:45:01;;;;;;;34.87;19.73;;;;;;;4.59;46.92;98849.61;252035;1153;114814;-68
2021/03/11 09:50:07;;;;;;;;;;;;;;;4.74;46.19;98842.83;252037;1146;114614;-67
2021/03/11 09:55:10;;;;;;;33.95;18.30;;;;;;;4.87;46.35;98824.73;252213;1153;101612;-70
2021/03/11 10:00:13;;;;;;;34.23;19.13;;;;;;;5.04;46.09;98814.31;251999;1146;115012;-69
2021/03/11 10:05:16;;;;;;;35.55;18.95;;;;;;;5.14;46.24;98791.04;252100;1153;114929;-71
2021/03/11 10:10:18;;;;;;;35.28;17.28;;;;;;;5.29;45.54;98782.44;252028;1146;114974;-71
2021/03/11 10:15:20;;;;;;;28.30;15.73;;;;;;;5.43;45.60;98758.95;251924;1153;114939;-63
2021/03/11 10:20:26;;;;;;;24.97;13.67;;;;;;;5.59;44.55;98747.66;251947;1144;115192;-65
2021/03/11 10:25:28;;;;;;;25.50;13.80;;;;;;;5.74;44.51;98740.80;251895;1146;114967;-65
2021/03/11 10:30:33;;;;;;;21.65;12.60;;;;;;;5.86;43.41;98727.03;251923;1146;114981;-65
2021/03/11 10:35:38;;;;;;;26.43;14.67;;;;;;;5.96;43.60;98712.48;252005;1146;115853;-66
2021/03/11 10:40:41;;;;;;;27.63;12.08;;;;;;;6.08;43.30;98695.16;251956;1144;114855;-68
2021/03/11 10:45:43;;;;;;;22.20;12.80;;;;;;;6.15;42.53;98678.11;251969;1146;115592;-67
2021/03/11 10:50:52;;;;;;;22.93;12.63;;;;;;;6.27;42.54;98676.63;251967;1146;115259;-67
2021/03/11 10:56:06;;;;;;;21.80;13.23;;;;;;;6.33;42.55;98671.88;252057;1146;114906;-67
2021/03/11 11:01:14;;;;;;;27.33;13.97;;;;;;;6.39;41.55;98658.36;252210;1146;114850;-66
2021/03/11 11:06:16;;;;;;;26.55;12.83;;;;;;;6.49;41.25;98652.58;251731;1146;115979;-68
2021/03/11 11:11:20;;;;;;;25.63;12.57;;;;;;;6.53;41.85;98633.86;252080;1146;114893;-68
2021/03/11 11:16:23;;;;;;;25.53;14.03;;;;;;;6.60;41.36;98623.82;251955;1153;116023;-67
2021/03/11 11:21:27;;;;;;;23.85;12.55;;;;;;;6.67;41.60;98613.78;251987;1146;114718;-67
2021/03/11 11:26:29;;;;;;;25.20;13.05;;;;;;;6.69;41.34;98596.91;250337;1145;114892;-68
2021/03/11 11:31:32;;;;;;;25.80;12.43;;;;;;;6.72;41.54;98580.00;251713;1146;115160;-66
2021/03/11 11:36:36;;;;;;;23.47;12.20;;;;;;;6.77;41.15;98577.97;252054;1153;114898;-66
2021/03/11 11:41:38;;;;;;;21.77;11.83;;;;;;;6.85;40.54;98575.76;251969;1146;114970;-66
2021/03/11 11:46:41;;;;;;;21.63;12.48;;;;;;;6.92;40.94;98560.41;252026;1153;114900;-66
2021/03/11 11:51:44;;;;;;;21.38;10.35;;;;;;;7.00;40.49;98560.86;252102;1145;114971;-67
2021/03/11 11:56:47;;;;;;;17.73;10.40;;;;;;;7.00;40.46;98542.34;251927;1153;114683;-66
2021/03/11 12:01:49;;;;;;;17.45;10.28;;;;;;;7.02;39.51;98543.09;251956;1146;114682;-67
2021/03/11 12:06:51;;;;;;;23.05;10.48;;;;;;;7.06;39.93;98526.95;251936;1146;115019;-67
2021/03/11 12:11:54;;;;;;;16.90;10.23;;;;;;;7.13;40.18;98513.38;252045;1146;115072;-67
2021/03/11 12:16:56;;;;;;;19.40;10.77;;;;;;;7.17;40.20;98497.27;251984;1146;114784;-66
2021/03/11 12:21:58;;;;;;;20.80;10.60;;;;;;;7.18;39.12;98479.59;251891;1147;116925;-66
2021/03/11 12:27:01;;;;;;;20.27;9.63;;;;;;;7.23;39.50;98474.88;252060;1152;114970;-67
2021/03/11 12:32:04;;;;;;;19.40;10.00;;;;;;;7.36;39.80;98467.92;251977;1146;115484;-66
2021/03/11 12:37:09;;;;;;;15.75;9.43;;;;;;;7.38;39.41;98473.16;251981;1146;114903;-66
2021/03/11 12:42:12;;;;;;;17.03;9.40;;;;;;;7.34;39.30;98481.27;250972;1146;114598;-66
2021/03/11 12:47:15;;;;;;;22.50;9.57;;;;;;;7.37;39.33;98492.59;251958;1146;114880;-66
2021/03/11 12:52:18;;;;;;;20.58;9.23;;;;;;;7.38;38.78;98479.30;251985;1145;115130;-67
2021/03/11 12:57:20;;;;;;;18.93;9.20;;;;;;;7.32;39.47;98488.43;251980;1153;114824;-67
2021/03/11 13:06:26;;;;;;;19.90;8.30;;;;;;;7.02;40.45;98506.91;252096;1144;102996;-65
2021/03/11 13:11:28;;;;;;;17.60;8.45;;;;;;;6.76;41.84;98503.08;252027;1153;115316;-65
2021/03/11 13:16:30;;;;;;;14.45;7.83;;;;;;;6.61;42.11;98493.33;252123;1146;115155;-65
2021/03/11 13:21:33;;;;;;;16.30;8.70;;;;;;;6.45;43.07;98477.44;252003;1153;114134;-65
2021/03/11 13:26:36;;;;;;;13.25;6.80;;;;;;;6.33;43.70;98468.41;251600;1146;114122;-66
2021/03/11 13:31:39;;;;;;;12.07;7.30;;;;;;;6.20;45.14;98461.22;252103;1144;114970;-66
2021/03/11 13:36:44;;;;;;;13.13;7.93;;;;;;;6.10;45.52;98448.49;252124;1146;114560;-67
2021/03/11 13:41:47;;;;;;;14.00;7.28;;;;;;;6.03;46.15;98433.06;252144;1153;114514;-67
2021/03/11 13:46:49;;;;;;;16.40;9.03;;;;;;;6.02;46.73;98432.22;252193;1146;116515;-66
2021/03/11 13:51:51;;;;;;;18.47;10.27;;;;;;;5.99;46.70;98411.25;252214;1146;115268;-65
2021/03/11 13:56:54;;;;;;;16.95;10.33;;;;;;;5.92;47.64;98392.23;252072;1146;114356;-66
2021/03/11 14:01:56;;;;;;;17.30;10.20;;;;;;;5.79;46.75;98375.30;252018;1153;114604;-66
2021/03/11 14:06:58;;;;;;;16.35;10.40;;;;;;;5.78;47.76;98367.48;252067;1146;115219;-66
2021/03/11 14:12:01;;;;;;;17.77;10.37;;;;;;;5.71;47.74;98345.84;252094;1152;114816;-68
2021/03/11 14:17:03;;;;;;;20.63;12.33;;;;;;;5.72;47.80;98342.25;251991;1145;114680;-68
2021/03/11 14:22:06;;;;;;;20.13;10.30;;;;;;;5.74;47.94;98336.88;251300;1146;116961;-67
2021/03/11 14:27:08;;;;;;;21.98;12.03;;;;;;;5.70;47.87;98328.27;251845;1146;115026;-67
2021/03/11 14:32:12;;;;;;;21.70;12.70;;;;;;;5.67;48.12;98313.47;248378;1152;115141;-68
2021/03/11 14:37:16;;;;;;;15.65;10.48;;;;;;;5.67;48.17;98284.44;252308;1144;114607;-67
2021/03/11 14:42:20;;;;;;;17.20;11.00;;;;;;;5.69;48.21;98257.94;251025;1153;114577;-67
2021/03/11 14:47:22;;;;;;;20.60;10.90;;;;;;;5.74;47.89;98257.67;251909;1145;114321;-68
2021/03/11 14:52:25;;;;;;;19.40;11.40;;;;;;;5.78;48.19;98252.16;251067;1152;114535;-67
2021/03/11 14:57:27;;;;;;;25.27;13.67;;;;;;;5.79;48.34;98258.30;252331;1144;115057;-65
2021/03/11 15:02:29;;;;;;;18.80;12.13;;;;;;;5.79;49.17;98247.73;251345;1152;114778;-67
2021/03/11 15:07:31;;;;;;;20.10;12.83;;;;;;;5.66;49.13;98223.80;250220;1146;114682;-64
2021/03/11 15:12:34;;;;;;;21.50;13.10;;;;;;;5.62;49.65;98211.70;251949;1153;115519;-68
2021/03/11 15:17:36;;;;;;;22.67;14.07;;;;;;;5.56;49.72;98180.37;250897;1146;115402;-67
2021/03/11 15:22:39;;;;;;;23.90;15.30;;;;;;;5.49;49.63;98150.83;251651;1153;209263;-68
2021/03/11 15:27:43;;;;;;;22.55;13.90;;;;;;;5.46;49.89;98143.92;251954;1146;115209;-66
2021/03/11 15:33:46;;;;;;;20.65;12.88;;;;;;;5.45;50.07;98149.30;252056;1143;103172;-68
2021/03/11 15:38:49;;;;;;;23.38;15.00;;;;;;;5.41;50.29;98145.98;251882;1152;115435;-67
2021/03/11 15:43:51;;;;;;;22.10;14.15;;;;;;;5.40;50.23;98143.41;252192;1146;114520;-68
2021/03/11 15:48:53;;;;;;;22.18;14.28;;;;;;;5.41;50.63;98163.61;252053;1144;114972;-68
2021/03/11 15:53:56;;;;;;;23.20;14.25;;;;;;;5.42;50.34;98163.52;252042;1146;114729;-68
2021/03/11 15:58:58;;;;;;;22.67;13.60;;;;;;;5.48;50.54;98146.50;252074;1144;114518;-67
2021/03/11 16:04:00;;;;;;;20.10;13.20;;;;;;;5.50;50.82;98141.97;251944;1146;114874;-67
2021/03/11 16:09:03;;;;;;;18.75;13.20;;;;;;;5.51;50.70;98132.30;251935;1146;114705;-68
2021/03/11 16:14:05;;;;;;;22.35;14.00;;;;;;;5.52;49.91;98129.55;251470;1145;114694;-66
2021/03/11 16:19:08;;;;;;;20.75;13.68;;;;;;;5.56;50.31;98123.16;251966;1146;114647;-66
2021/03/11 16:24:11;;;;;;;20.30;12.83;;;;;;;5.58;50.40;98121.30;251948;1145;114460;-66
2021/03/11 16:29:14;;;;;;;21.03;13.57;;;;;;;5.63;50.37;98123.66;251959;1146;114488;-67
2021/03/11 16:34:16;;;;;;;21.75;13.98;;;;;;;5.69;50.33;98115.41;251987;1144;114737;-67
2021/03/11 16:39:18;;;;;;;22.83;14.58;;;;;;;5.75;50.58;98119.49;252026;1153;115544;-67
2021/03/11 16:44:21;;;;;;;21.77;15.18;;;;;;;5.80;50.16;98128.83;251934;1145;114755;-65
2021/03/11 16:49:24;;;;;;;23.03;13.67;;;;;;;5.82;50.15;98118.20;251956;1146;115182;-67
2021/03/11 16:54:27;;;;;;;25.05;14.93;;;;;;;5.73;50.35;98092.31;251893;1145;114752;-66
2021/03/11 16:59:45;;;;;;;18.85;13.30;;;;;;;5.71;51.17;98068.66;251958;1146;114857;-66
2021/03/11 17:04:47;;;;;;;19.75;14.00;;;;;;;5.62;51.15;98051.56;251942;1147;115176;-67
2021/03/11 17:09:52;;;;;;;23.53;14.23;;;;;;;5.56;51.76;98061.61;251864;1145;114510;-67
2021/03/11 17:15:16;;;;;;;21.97;13.57;;;;;;;5.52;52.06;98037.20;251916;1146;114689;-72
2021/03/11 17:20:24;;;;;;;21.58;14.68;;;;;;;5.51;51.73;98018.83;251950;1146;114726;-73
2021/03/11 17:25:28;;;;;;;;;;;;;;;5.51;52.45;98010.91;251919;1146;115223;-73
2021/03/11 17:30:32;;;;;;;23.43;14.93;;;;;;;5.50;52.71;97983.64;252038;1153;102748;-73
2021/03/11 17:35:41;;;;;;;24.85;15.80;;;;;;;5.52;52.77;98044.27;251909;1146;114740;-74
2021/03/11 17:41:04;;;;;;;25.50;16.60;;;;;;;5.50;52.56;98054.89;250015;1153;114702;-73
2021/03/11 17:46:12;;;;;;;24.37;16.33;;;;;;;5.52;53.17;98021.36;251943;1146;114924;-70
2021/03/11 17:51:20;;;;;;;27.53;16.25;;;;;;;5.55;52.78;98038.81;251999;1153;114982;-63
2021/03/11 17:56:27;;;;;;;25.53;15.58;;;;;;;5.55;52.79;98055.49;251847;1147;115520;-66
2021/03/11 18:01:49;;;;;;;24.28;16.03;;;;;;;5.58;53.30;98041.28;252014;1153;115462;-71
2021/03/11 18:06:53;;;;;;;28.87;16.83;;;;;;;5.61;52.80;98022.63;252004;1144;114515;-66
2021/03/11 18:11:55;;;;;;;27.40;16.28;;;;;;;5.64;53.47;98020.66;251941;1153;115037;-65
2021/03/11 18:16:58;;;;;;;27.93;17.23;;;;;;;5.67;53.18;98017.84;251965;1146;114542;-65
2021/03/11 18:22:00;;;;;;;26.83;17.23;;;;;;;5.68;53.40;98008.13;251976;1153;114596;-65
2021/03/11 18:27:03;;;;;;;29.13;17.00;;;;;;;5.71;53.47;98013.23;252006;1146;114964;-67
2021/03/11 18:32:06;;;;;;;25.90;15.28;;;;;;;5.76;53.11;97999.75;250764;1145;115189;-64
2021/03/11 18:37:08;;;;;;;21.90;13.48;;;;;;;5.84;54.50;97990.45;251946;1146;114977;-64
2021/03/11 18:42:20;;;;;;;20.30;13.35;;;;;;;5.99;54.70;97988.70;252020;1146;114689;-76
2021/03/11 18:47:29;;;;;;;21.23;12.80;;;;;;;6.11;54.15;97987.09;251951;1145;114487;-78
2021/03/11 18:52:41;;;;;;;23.78;13.25;;;;;;;6.20;54.10;97978.62;251779;1146;114805;-79
2021/03/11 18:57:48;;;;;;;21.25;11.83;;;;;;;6.28;54.97;97984.27;250807;1148;114998;-75
2021/03/11 19:02:56;;;;;;;23.63;14.10;;;;;;;6.36;54.97;97962.67;250227;1147;115334;-76
2021/03/11 19:08:14;;;;;;;28.23;18.07;;;;;;;6.37;54.51;97954.64;252013;1146;115169;-76
2021/03/11 19:13:30;;;;;;;;;;;;;;;;;;;;;
2021/03/11 19:18:37;;;;;;;29.00;18.47;;;;;;;6.22;53.70;97947.69;250675;1146;114834;-77
2021/03/11 19:23:57;;;;;;;27.63;17.15;;;;;;;6.14;54.49;97953.42;252032;1147;114658;-73
2021/03/11 19:29:00;;;;;;;26.45;16.28;;;;;;;6.15;54.29;97938.45;252169;1153;114660;-74
2021/03/11 19:39:19;;;;;;;26.53;16.87;;;;;;;6.12;54.29;97925.42;250997;1144;103033;-72
2021/03/11 19:44:51;;;;;;;25.80;15.30;;;;;;;6.15;54.70;97912.03;251752;1146;115294;-72
2021/03/11 19:50:03;;;;;;;28.00;15.78;;;;;;;6.18;55.15;97888.03;251805;1153;114369;-73
2021/03/11 19:55:12;;;;;;;26.00;16.50;;;;;;;6.23;55.35;97866.64;251810;1146;114737;-74
2021/03/11 20:00:20;;;;;;;29.37;17.60;;;;;;;6.28;55.02;97868.02;251822;1146;114884;-71
2021/03/11 20:05:26;;;;;;;25.18;16.48;;;;;;;6.31;55.05;97857.26;251871;1146;114564;-71
2021/03/11 20:10:34;;;;;;;28.40;16.67;;;;;;;6.34;54.60;97843.86;251967;1153;115367;-70
2021/03/11 20:15:37;;;;;;;30.50;17.90;;;;;;;6.32;54.68;97827.27;251937;1146;114434;-69
2021/03/11 20:20:43;;;;;;;30.28;17.35;;;;;;;6.30;54.51;97828.31;251946;1153;114333;-73
2021/03/11 20:25:49;;;;;;;30.15;17.40;;;;;;;6.19;54.33;97802.59;251949;1145;115186;-70
2021/03/11 20:30:54;;;;;;;25.87;16.83;;;;;;;6.14;54.57;97799.38;251908;1153;114823;-69
2021/03/11 20:35:57;;;;;;;21.65;15.48;;;;;;;6.12;53.84;97814.49;251999;1148;115489;-70
2021/03/11 20:41:16;;;;;;;26.00;16.47;;;;;;;6.09;53.82;97790.91;251638;1147;133373;-68
2021/03/11 20:46:19;;;;;;;25.78;16.35;;;;;;;6.09;54.56;97796.20;251732;1147;115395;-68
2021/03/11 20:51:21;;;;;;;25.65;16.85;;;;;;;6.06;54.46;97791.95;251578;1147;115318;-68
2021/03/11 20:56:24;;;;;;;27.53;18.45;;;;;;;5.96;53.75;97769.72;251818;1147;114917;-68
2021/03/11 21:01:27;;;;;;;29.18;17.88;;;;;;;5.81;54.47;97760.95;251893;1145;114501;-68
2021/03/11 21:06:29;;;;;;;27.60;17.05;;;;;;;5.72;54.62;97740.41;251967;1147;115076;-69
2021/03/11 21:11:32;;;;;;;29.83;17.30;;;;;;;5.63;54.54;97736.55;251699;1148;114729;-68
2021/03/11 21:16:34;;;;;;;25.25;16.65;;;;;;;5.59;54.66;97736.84;251835;1147;114719;-68
2021/03/11 21:21:37;;;;;;;25.05;16.03;;;;;;;5.61;55.02;97746.38;251809;1154;114458;-71
2021/03/11 21:26:44;;;;;;;27.85;16.55;;;;;;;5.61;54.99;97738.45;251545;1147;114427;-71
2021/03/11 21:31:48;;;;;;;20.93;14.77;;;;;;;5.61;55.51;97737.61;251889;1146;115094;-71
2021/03/11 21:36:53;;;;;;;27.28;16.38;;;;;;;5.67;55.59;97719.59;251769;1147;114846;-71
2021/03/11 21:41:56;;;;;;;34.78;22.68;;;;;;;5.71;55.63;97714.97;251894;1154;114995;-71
2021/03/11 21:46:59;;;;;;;30.33;17.77;;;;;;;5.69;55.42;97687.81;251688;1147;114595;-69
2021/03/11 21:52:01;;;;;;;25.90;16.50;;;;;;;5.69;55.10;97693.09;251660;1154;116312;-71
2021/03/11 21:57:08;;;;;;;23.40;16.00;;;;;;;5.73;55.65;97701.66;251887;1148;114691;-71
2021/03/11 22:02:18;;;;;;;22.67;15.53;;;;;;;5.84;55.37;97686.84;251870;1146;117294;-71
2021/03/11 22:07:29;;;;;;;26.05;15.45;;;;;;;5.91;55.71;97685.50;251723;1147;114979;-73
2021/03/11 22:12:50;;;;;;;;;;;;;;;6.03;55.46;97683.88;251797;1147;115577;-74
2021/03/11 22:17:53;;;;;;;21.10;13.40;;;;;;;6.13;55.79;97684.12;251898;1147;101083;-75
2021/03/11 22:22:57;;;;;;;22.90;14.90;;;;;;;6.23;56.29;97679.08;251455;1149;114824;-73
2021/03/11 22:28:03;;;;;;;24.00;15.60;;;;;;;6.34;56.29;97677.40;251864;1154;114839;-72
2021/03/11 22:33:10;;;;;;;22.90;14.80;;;;;;;6.41;55.83;97685.77;251694;1147;114899;-70
2021/03/11 22:38:13;;;;;;;24.23;15.13;;;;;;;6.51;55.93;97673.63;251860;1154;114729;-73
2021/03/11 22:43:22;;;;;;;22.60;15.25;;;;;;;6.54;55.84;97670.78;251790;1153;115249;-75
2021/03/11 22:48:24;;;;;;;21.83;14.53;;;;;;;6.60;55.38;97669.53;251682;1154;115184;-73
2021/03/11 22:53:30;;;;;;;28.20;18.00;;;;;;;6.62;55.44;97668.48;251665;1148;114597;-71
2021/03/11 22:58:32;;;;;;;;;;;;;;;6.61;55.80;97687.07;251789;1154;115107;-72
2021/03/11 23:03:35;;;;;;;22.90;15.43;;;;;;;6.54;55.08;97686.64;251878;1147;101805;-71
2021/03/11 23:08:40;;;;;;;23.90;15.47;;;;;;;6.54;55.38;97685.80;251799;1148;115525;-72
2021/03/11 23:13:48;;;;;;;22.03;15.80;;;;;;;6.49;55.50;97683.48;251866;1147;114864;-71
2021/03/11 23:18:51;;;;;;;26.23;15.97;;;;;;;6.44;56.22;97666.22;251724;1154;115114;-71
2021/03/11 23:23:53;;;;;;;26.83;16.47;;;;;;;6.36;56.61;97662.30;251581;1147;114921;-74
2021/03/11 23:29:03;;;;;;;25.05;16.55;;;;;;;6.29;56.87;97644.34;250768;1153;115189;-75
2021/03/11 23:34:14;;;;;;;26.55;17.58;;;;;;;6.24;56.62;97655.19;251793;1146;114762;-73